Antimony, Utah
Current Conditions -  °F | °C
As of 8:53 PM on Friday 31 Oct 2014 (Local Time) from KBCE Reporting Station
Broken Clouds Broken Clouds  
Wind Chill: 42°   Ceiling: 9000
Heat Index: 45°   Visibility: 10mi
Dew Point: 28°   Wind: 6mph
Humidity: 52%   Direction: 160°SSE
Pressure: 30.07"   Gusts: NA
Location:  38.12°N, 112°W
Report Text: KBCE 010253Z AUTO 16005KT 10SM BKN090 07/M02 A3007 RMK AO2 SLP120 T00721022 56007 TSNO
Loading
Personal Weather Stations






























Interactive Weather Map
Tropical Storm Tracking
New forecast layout! Learn more

10-Day Weather Forecast

Advertisements
Track Severe Weather on mobile